sensor_id;sensor_type;location;lat;lon;timestamp;P1;durP1;ratioP1;P2;durP2;ratioP2
8058;SDS011;4072;42.668;23.396;2023-02-15T00:01:31;34.97;;;22.33;;
8058;SDS011;4072;42.668;23.396;2023-02-15T00:03:59;35.50;;;23.03;;
8058;SDS011;4072;42.668;23.396;2023-02-15T00:06:27;34.07;;;22.43;;
8058;SDS011;4072;42.668;23.396;2023-02-15T00:08:55;32.47;;;23.00;;
8058;SDS011;4072;42.668;23.396;2023-02-15T00:11:23;29.57;;;19.60;;
8058;SDS011;4072;42.668;23.396;2023-02-15T00:14:08;32.60;;;23.17;;
8058;SDS011;4072;42.668;23.396;2023-02-15T00:16:36;31.57;;;22.77;;
8058;SDS011;4072;42.668;23.396;2023-02-15T00:19:05;34.33;;;23.33;;
8058;SDS011;4072;42.668;23.396;2023-02-15T00:21:33;33.73;;;24.13;;
8058;SDS011;4072;42.668;23.396;2023-02-15T00:24:02;37.40;;;22.93;;
8058;SDS011;4072;42.668;23.396;2023-02-15T00:26:30;38.50;;;24.53;;
8058;SDS011;4072;42.668;23.396;2023-02-15T00:28:58;39.30;;;25.63;;
8058;SDS011;4072;42.668;23.396;2023-02-15T00:31:28;37.13;;;24.97;;
8058;SDS011;4072;42.668;23.396;2023-02-15T00:34:00;37.67;;;23.77;;
8058;SDS011;4072;42.668;23.396;2023-02-15T00:36:28;36.37;;;23.23;;
8058;SDS011;4072;42.668;23.396;2023-02-15T00:38:56;37.23;;;25.10;;
8058;SDS011;4072;42.668;23.396;2023-02-15T00:41:24;38.97;;;25.30;;
8058;SDS011;4072;42.668;23.396;2023-02-15T00:43:52;35.97;;;24.60;;
8058;SDS011;4072;42.668;23.396;2023-02-15T00:46:20;33.83;;;23.60;;
8058;SDS011;4072;42.668;23.396;2023-02-15T00:48:50;33.60;;;24.53;;
8058;SDS011;4072;42.668;23.396;2023-02-15T00:51:17;36.57;;;23.90;;
8058;SDS011;4072;42.668;23.396;2023-02-15T00:53:46;33.97;;;23.40;;
8058;SDS011;4072;42.668;23.396;2023-02-15T00:56:14;33.93;;;23.60;;
8058;SDS011;4072;42.668;23.396;2023-02-15T00:58:42;30.70;;;22.57;;
8058;SDS011;4072;42.668;23.396;2023-02-15T01:01:11;32.20;;;22.77;;
8058;SDS011;4072;42.668;23.396;2023-02-15T01:03:39;32.97;;;21.33;;
8058;SDS011;4072;42.668;23.396;2023-02-15T01:06:09;33.10;;;22.50;;
8058;SDS011;4072;42.668;23.396;2023-02-15T01:08:37;36.73;;;23.43;;
8058;SDS011;4072;42.668;23.396;2023-02-15T01:11:07;36.00;;;23.20;;
8058;SDS011;4072;42.668;23.396;2023-02-15T01:13:36;37.37;;;24.13;;
8058;SDS011;4072;42.668;23.396;2023-02-15T01:16:04;35.20;;;22.63;;
8058;SDS011;4072;42.668;23.396;2023-02-15T01:18:32;33.77;;;23.90;;
8058;SDS011;4072;42.668;23.396;2023-02-15T01:21:00;33.20;;;23.93;;
8058;SDS011;4072;42.668;23.396;2023-02-15T01:23:37;33.17;;;22.43;;
8058;SDS011;4072;42.668;23.396;2023-02-15T01:26:04;30.73;;;20.77;;
8058;SDS011;4072;42.668;23.396;2023-02-15T01:28:32;31.67;;;22.13;;
8058;SDS011;4072;42.668;23.396;2023-02-15T01:31:03;28.37;;;19.90;;
8058;SDS011;4072;42.668;23.396;2023-02-15T01:33:32;35.07;;;23.27;;
8058;SDS011;4072;42.668;23.396;2023-02-15T01:36:00;31.63;;;22.00;;
8058;SDS011;4072;42.668;23.396;2023-02-15T01:38:29;33.70;;;22.50;;
8058;SDS011;4072;42.668;23.396;2023-02-15T01:40:58;32.97;;;22.50;;
8058;SDS011;4072;42.668;23.396;2023-02-15T01:43:47;33.43;;;22.50;;
8058;SDS011;4072;42.668;23.396;2023-02-15T01:46:15;35.37;;;23.00;;
8058;SDS011;4072;42.668;23.396;2023-02-15T01:48:45;30.30;;;21.77;;
8058;SDS011;4072;42.668;23.396;2023-02-15T01:51:14;31.60;;;22.23;;
8058;SDS011;4072;42.668;23.396;2023-02-15T01:53:46;34.03;;;22.57;;
8058;SDS011;4072;42.668;23.396;2023-02-15T01:56:19;30.23;;;19.83;;
8058;SDS011;4072;42.668;23.396;2023-02-15T01:58:47;30.20;;;21.13;;
8058;SDS011;4072;42.668;23.396;2023-02-15T02:01:15;34.83;;;24.03;;
8058;SDS011;4072;42.668;23.396;2023-02-15T02:03:46;29.97;;;21.50;;
8058;SDS011;4072;42.668;23.396;2023-02-15T02:06:16;29.77;;;20.53;;
8058;SDS011;4072;42.668;23.396;2023-02-15T02:08:45;31.77;;;22.03;;
8058;SDS011;4072;42.668;23.396;2023-02-15T02:11:13;30.97;;;22.03;;
8058;SDS011;4072;42.668;23.396;2023-02-15T02:13:44;29.27;;;20.80;;
8058;SDS011;4072;42.668;23.396;2023-02-15T02:16:13;32.43;;;23.03;;
8058;SDS011;4072;42.668;23.396;2023-02-15T02:18:45;30.23;;;21.37;;
8058;SDS011;4072;42.668;23.396;2023-02-15T02:29:46;31.13;;;21.87;;
8058;SDS011;4072;42.668;23.396;2023-02-15T02:35:01;34.33;;;22.67;;
8058;SDS011;4072;42.668;23.396;2023-02-15T02:37:34;35.27;;;22.23;;
8058;SDS011;4072;42.668;23.396;2023-02-15T02:40:06;33.67;;;21.87;;
8058;SDS011;4072;42.668;23.396;2023-02-15T02:42:38;28.90;;;21.03;;
8058;SDS011;4072;42.668;23.396;2023-02-15T02:45:07;30.70;;;19.83;;
8058;SDS011;4072;42.668;23.396;2023-02-15T02:47:36;31.27;;;20.73;;
8058;SDS011;4072;42.668;23.396;2023-02-15T02:50:08;28.93;;;20.47;;
8058;SDS011;4072;42.668;23.396;2023-02-15T02:52:37;30.57;;;21.60;;
8058;SDS011;4072;42.668;23.396;2023-02-15T02:55:07;31.07;;;21.07;;
8058;SDS011;4072;42.668;23.396;2023-02-15T02:57:36;28.73;;;21.63;;
8058;SDS011;4072;42.668;23.396;2023-02-15T03:00:05;28.30;;;19.53;;
8058;SDS011;4072;42.668;23.396;2023-02-15T03:02:36;26.37;;;19.20;;
8058;SDS011;4072;42.668;23.396;2023-02-15T03:05:05;28.83;;;20.03;;
8058;SDS011;4072;42.668;23.396;2023-02-15T03:07:36;31.23;;;19.87;;
8058;SDS011;4072;42.668;23.396;2023-02-15T03:10:05;27.70;;;19.17;;
8058;SDS011;4072;42.668;23.396;2023-02-15T03:12:34;29.40;;;20.90;;
8058;SDS011;4072;42.668;23.396;2023-02-15T03:15:04;32.63;;;20.53;;
8058;SDS011;4072;42.668;23.396;2023-02-15T03:17:33;31.03;;;21.33;;
8058;SDS011;4072;42.668;23.396;2023-02-15T03:20:02;33.77;;;22.93;;
8058;SDS011;4072;42.668;23.396;2023-02-15T03:22:33;27.17;;;19.80;;
8058;SDS011;4072;42.668;23.396;2023-02-15T03:25:08;28.47;;;19.87;;
8058;SDS011;4072;42.668;23.396;2023-02-15T03:27:39;28.53;;;19.53;;
8058;SDS011;4072;42.668;23.396;2023-02-15T03:30:08;30.57;;;21.17;;
8058;SDS011;4072;42.668;23.396;2023-02-15T03:32:37;31.23;;;21.97;;
8058;SDS011;4072;42.668;23.396;2023-02-15T03:35:05;28.87;;;19.70;;
8058;SDS011;4072;42.668;23.396;2023-02-15T03:37:35;29.17;;;19.80;;
8058;SDS011;4072;42.668;23.396;2023-02-15T03:40:06;32.00;;;21.30;;
8058;SDS011;4072;42.668;23.396;2023-02-15T03:42:51;29.60;;;20.50;;
8058;SDS011;4072;42.668;23.396;2023-02-15T03:45:22;27.47;;;20.03;;
8058;SDS011;4072;42.668;23.396;2023-02-15T03:47:52;29.37;;;18.97;;
8058;SDS011;4072;42.668;23.396;2023-02-15T03:50:22;27.03;;;18.33;;
8058;SDS011;4072;42.668;23.396;2023-02-15T03:53:10;32.70;;;21.63;;
8058;SDS011;4072;42.668;23.396;2023-02-15T03:55:39;27.17;;;19.90;;
8058;SDS011;4072;42.668;23.396;2023-02-15T03:58:08;33.20;;;19.83;;
8058;SDS011;4072;42.668;23.396;2023-02-15T04:00:54;26.97;;;17.67;;
8058;SDS011;4072;42.668;23.396;2023-02-15T04:03:43;26.10;;;19.80;;
8058;SDS011;4072;42.668;23.396;2023-02-15T04:06:12;31.43;;;20.13;;
8058;SDS011;4072;42.668;23.396;2023-02-15T04:08:40;31.23;;;19.90;;
8058;SDS011;4072;42.668;23.396;2023-02-15T04:11:26;27.20;;;18.60;;
8058;SDS011;4072;42.668;23.396;2023-02-15T04:13:56;27.33;;;19.67;;
8058;SDS011;4072;42.668;23.396;2023-02-15T04:16:26;27.57;;;19.27;;
8058;SDS011;4072;42.668;23.396;2023-02-15T04:18:56;28.23;;;19.87;;
8058;SDS011;4072;42.668;23.396;2023-02-15T04:21:41;27.30;;;18.70;;
8058;SDS011;4072;42.668;23.396;2023-02-15T04:24:26;28.47;;;18.73;;
8058;SDS011;4072;42.668;23.396;2023-02-15T04:27:11;24.80;;;16.63;;
8058;SDS011;4072;42.668;23.396;2023-02-15T04:29:42;26.53;;;17.33;;
8058;SDS011;4072;42.668;23.396;2023-02-15T04:32:10;28.67;;;19.10;;
8058;SDS011;4072;42.668;23.396;2023-02-15T04:34:37;28.27;;;18.97;;
8058;SDS011;4072;42.668;23.396;2023-02-15T04:37:05;27.13;;;18.40;;
8058;SDS011;4072;42.668;23.396;2023-02-15T04:39:33;27.10;;;18.83;;
8058;SDS011;4072;42.668;23.396;2023-02-15T04:42:01;27.13;;;19.77;;
8058;SDS011;4072;42.668;23.396;2023-02-15T04:44:29;26.43;;;17.97;;
8058;SDS011;4072;42.668;23.396;2023-02-15T04:46:58;26.77;;;18.53;;
8058;SDS011;4072;42.668;23.396;2023-02-15T04:49:26;27.23;;;19.50;;
8058;SDS011;4072;42.668;23.396;2023-02-15T04:51:54;26.53;;;18.10;;
8058;SDS011;4072;42.668;23.396;2023-02-15T04:54:22;29.43;;;19.83;;
8058;SDS011;4072;42.668;23.396;2023-02-15T04:56:50;25.47;;;18.90;;
8058;SDS011;4072;42.668;23.396;2023-02-15T04:59:18;29.63;;;19.13;;
8058;SDS011;4072;42.668;23.396;2023-02-15T05:01:46;28.00;;;18.23;;
8058;SDS011;4072;42.668;23.396;2023-02-15T05:04:15;27.10;;;19.63;;
8058;SDS011;4072;42.668;23.396;2023-02-15T05:06:43;26.30;;;18.67;;
8058;SDS011;4072;42.668;23.396;2023-02-15T05:09:11;26.67;;;18.63;;
8058;SDS011;4072;42.668;23.396;2023-02-15T05:11:39;30.07;;;19.53;;
8058;SDS011;4072;42.668;23.396;2023-02-15T05:14:07;28.33;;;20.07;;
8058;SDS011;4072;42.668;23.396;2023-02-15T05:16:36;26.53;;;19.37;;
8058;SDS011;4072;42.668;23.396;2023-02-15T05:19:04;32.30;;;19.87;;
8058;SDS011;4072;42.668;23.396;2023-02-15T05:21:34;28.87;;;19.83;;
8058;SDS011;4072;42.668;23.396;2023-02-15T05:24:02;30.27;;;20.33;;
8058;SDS011;4072;42.668;23.396;2023-02-15T05:26:49;26.63;;;19.57;;
8058;SDS011;4072;42.668;23.396;2023-02-15T05:29:35;28.00;;;19.53;;
8058;SDS011;4072;42.668;23.396;2023-02-15T05:32:03;28.90;;;19.10;;
8058;SDS011;4072;42.668;23.396;2023-02-15T05:34:31;24.50;;;17.50;;
8058;SDS011;4072;42.668;23.396;2023-02-15T05:37:01;33.10;;;21.40;;
8058;SDS011;4072;42.668;23.396;2023-02-15T05:39:30;31.43;;;19.33;;
8058;SDS011;4072;42.668;23.396;2023-02-15T05:41:58;29.47;;;19.77;;
8058;SDS011;4072;42.668;23.396;2023-02-15T05:44:26;29.57;;;18.83;;
8058;SDS011;4072;42.668;23.396;2023-02-15T05:46:54;24.90;;;17.73;;
8058;SDS011;4072;42.668;23.396;2023-02-15T05:49:22;32.87;;;20.50;;
8058;SDS011;4072;42.668;23.396;2023-02-15T05:51:49;27.93;;;18.90;;
8058;SDS011;4072;42.668;23.396;2023-02-15T05:54:18;27.30;;;19.07;;
8058;SDS011;4072;42.668;23.396;2023-02-15T05:56:46;26.40;;;17.90;;
8058;SDS011;4072;42.668;23.396;2023-02-15T05:59:14;29.17;;;20.40;;
8058;SDS011;4072;42.668;23.396;2023-02-15T06:01:42;27.60;;;19.07;;
8058;SDS011;4072;42.668;23.396;2023-02-15T06:04:11;31.87;;;19.40;;
8058;SDS011;4072;42.668;23.396;2023-02-15T06:06:39;25.70;;;18.93;;
8058;SDS011;4072;42.668;23.396;2023-02-15T06:09:07;24.50;;;19.03;;
8058;SDS011;4072;42.668;23.396;2023-02-15T06:11:37;24.43;;;17.83;;
8058;SDS011;4072;42.668;23.396;2023-02-15T06:14:05;25.53;;;17.00;;
8058;SDS011;4072;42.668;23.396;2023-02-15T06:16:33;24.60;;;15.83;;
8058;SDS011;4072;42.668;23.396;2023-02-15T06:19:01;28.97;;;19.23;;
8058;SDS011;4072;42.668;23.396;2023-02-15T06:21:30;26.27;;;18.17;;
8058;SDS011;4072;42.668;23.396;2023-02-15T06:23:58;26.13;;;18.23;;
8058;SDS011;4072;42.668;23.396;2023-02-15T06:26:26;28.03;;;18.70;;
8058;SDS011;4072;42.668;23.396;2023-02-15T06:28:55;28.70;;;19.03;;
8058;SDS011;4072;42.668;23.396;2023-02-15T06:31:23;23.53;;;16.67;;
8058;SDS011;4072;42.668;23.396;2023-02-15T06:33:51;26.27;;;18.23;;
8058;SDS011;4072;42.668;23.396;2023-02-15T06:36:18;25.73;;;18.20;;
8058;SDS011;4072;42.668;23.396;2023-02-15T06:38:47;27.57;;;18.40;;
8058;SDS011;4072;42.668;23.396;2023-02-15T06:41:15;26.90;;;17.93;;
8058;SDS011;4072;42.668;23.396;2023-02-15T06:43:43;28.43;;;17.83;;
8058;SDS011;4072;42.668;23.396;2023-02-15T06:46:12;26.50;;;18.33;;
8058;SDS011;4072;42.668;23.396;2023-02-15T06:48:41;24.17;;;17.13;;
8058;SDS011;4072;42.668;23.396;2023-02-15T06:51:08;23.93;;;16.93;;
8058;SDS011;4072;42.668;23.396;2023-02-15T06:53:36;25.80;;;17.50;;
8058;SDS011;4072;42.668;23.396;2023-02-15T06:56:05;25.07;;;17.30;;
8058;SDS011;4072;42.668;23.396;2023-02-15T06:58:35;26.27;;;18.27;;
8058;SDS011;4072;42.668;23.396;2023-02-15T07:01:03;25.07;;;17.73;;
8058;SDS011;4072;42.668;23.396;2023-02-15T07:03:35;24.90;;;17.53;;
8058;SDS011;4072;42.668;23.396;2023-02-15T07:06:03;27.33;;;18.23;;
8058;SDS011;4072;42.668;23.396;2023-02-15T07:08:34;25.70;;;16.67;;
8058;SDS011;4072;42.668;23.396;2023-02-15T07:11:03;21.80;;;15.97;;
8058;SDS011;4072;42.668;23.396;2023-02-15T07:13:44;24.47;;;18.23;;
8058;SDS011;4072;42.668;23.396;2023-02-15T07:16:13;26.20;;;17.87;;
8058;SDS011;4072;42.668;23.396;2023-02-15T07:18:45;25.73;;;17.60;;
8058;SDS011;4072;42.668;23.396;2023-02-15T07:21:12;28.00;;;17.47;;
8058;SDS011;4072;42.668;23.396;2023-02-15T07:23:40;19.97;;;15.93;;
8058;SDS011;4072;42.668;23.396;2023-02-15T07:26:08;22.40;;;15.63;;
8058;SDS011;4072;42.668;23.396;2023-02-15T07:28:36;26.80;;;17.40;;
8058;SDS011;4072;42.668;23.396;2023-02-15T07:31:04;22.33;;;15.37;;
8058;SDS011;4072;42.668;23.396;2023-02-15T07:33:32;22.47;;;16.77;;
8058;SDS011;4072;42.668;23.396;2023-02-15T07:36:02;22.40;;;16.13;;
8058;SDS011;4072;42.668;23.396;2023-02-15T07:38:31;21.60;;;15.80;;
8058;SDS011;4072;42.668;23.396;2023-02-15T07:41:01;23.23;;;15.10;;
8058;SDS011;4072;42.668;23.396;2023-02-15T07:43:32;23.67;;;15.33;;
8058;SDS011;4072;42.668;23.396;2023-02-15T07:46:00;20.83;;;16.07;;
8058;SDS011;4072;42.668;23.396;2023-02-15T07:48:29;20.93;;;15.30;;
8058;SDS011;4072;42.668;23.396;2023-02-15T07:50:58;19.20;;;15.33;;
8058;SDS011;4072;42.668;23.396;2023-02-15T07:53:28;21.80;;;16.23;;
8058;SDS011;4072;42.668;23.396;2023-02-15T07:55:58;23.33;;;16.03;;
8058;SDS011;4072;42.668;23.396;2023-02-15T07:58:26;22.90;;;16.63;;
8058;SDS011;4072;42.668;23.396;2023-02-15T08:01:17;23.30;;;16.83;;
8058;SDS011;4072;42.668;23.396;2023-02-15T08:03:45;22.50;;;15.93;;
8058;SDS011;4072;42.668;23.396;2023-02-15T08:06:14;18.27;;;13.77;;
8058;SDS011;4072;42.668;23.396;2023-02-15T08:08:43;19.37;;;13.33;;
8058;SDS011;4072;42.668;23.396;2023-02-15T08:11:15;23.40;;;15.80;;
8058;SDS011;4072;42.668;23.396;2023-02-15T08:14:03;19.37;;;13.67;;
8058;SDS011;4072;42.668;23.396;2023-02-15T08:16:33;21.07;;;14.23;;
8058;SDS011;4072;42.668;23.396;2023-02-15T08:19:02;22.00;;;16.03;;
8058;SDS011;4072;42.668;23.396;2023-02-15T08:21:31;21.47;;;13.40;;
8058;SDS011;4072;42.668;23.396;2023-02-15T08:24:00;18.10;;;12.07;;
8058;SDS011;4072;42.668;23.396;2023-02-15T08:26:29;20.63;;;15.33;;
8058;SDS011;4072;42.668;23.396;2023-02-15T08:28:57;18.33;;;11.07;;
8058;SDS011;4072;42.668;23.396;2023-02-15T08:31:26;21.30;;;14.93;;
8058;SDS011;4072;42.668;23.396;2023-02-15T08:33:55;21.67;;;14.63;;
8058;SDS011;4072;42.668;23.396;2023-02-15T08:36:24;19.17;;;13.73;;
8058;SDS011;4072;42.668;23.396;2023-02-15T08:38:52;14.80;;;9.30;;
8058;SDS011;4072;42.668;23.396;2023-02-15T08:41:22;22.20;;;12.90;;
8058;SDS011;4072;42.668;23.396;2023-02-15T08:43:52;20.37;;;14.77;;
8058;SDS011;4072;42.668;23.396;2023-02-15T08:46:20;18.20;;;12.53;;
8058;SDS011;4072;42.668;23.396;2023-02-15T08:48:48;22.07;;;15.50;;
8058;SDS011;4072;42.668;23.396;2023-02-15T08:51:18;23.73;;;16.97;;
8058;SDS011;4072;42.668;23.396;2023-02-15T08:53:48;21.70;;;15.33;;
8058;SDS011;4072;42.668;23.396;2023-02-15T08:56:16;21.70;;;14.13;;
8058;SDS011;4072;42.668;23.396;2023-02-15T08:58:48;20.93;;;15.27;;
8058;SDS011;4072;42.668;23.396;2023-02-15T09:01:19;19.43;;;13.93;;
8058;SDS011;4072;42.668;23.396;2023-02-15T09:03:49;20.33;;;15.43;;
8058;SDS011;4072;42.668;23.396;2023-02-15T09:06:19;22.37;;;12.63;;
8058;SDS011;4072;42.668;23.396;2023-02-15T09:08:47;16.67;;;11.80;;
8058;SDS011;4072;42.668;23.396;2023-02-15T09:11:17;16.57;;;12.13;;
8058;SDS011;4072;42.668;23.396;2023-02-15T09:13:51;19.47;;;13.40;;
8058;SDS011;4072;42.668;23.396;2023-02-15T09:16:20;20.97;;;14.83;;
8058;SDS011;4072;42.668;23.396;2023-02-15T09:18:48;17.00;;;11.23;;
8058;SDS011;4072;42.668;23.396;2023-02-15T09:21:17;20.17;;;14.17;;
8058;SDS011;4072;42.668;23.396;2023-02-15T09:23:47;16.77;;;12.10;;
8058;SDS011;4072;42.668;23.396;2023-02-15T09:26:18;21.00;;;13.33;;
8058;SDS011;4072;42.668;23.396;2023-02-15T09:28:47;18.30;;;12.63;;
8058;SDS011;4072;42.668;23.396;2023-02-15T09:31:20;19.73;;;12.87;;
8058;SDS011;4072;42.668;23.396;2023-02-15T09:33:48;18.40;;;13.53;;
8058;SDS011;4072;42.668;23.396;2023-02-15T09:36:17;17.33;;;12.73;;
8058;SDS011;4072;42.668;23.396;2023-02-15T09:38:46;20.63;;;14.30;;
8058;SDS011;4072;42.668;23.396;2023-02-15T09:41:23;17.97;;;13.43;;
8058;SDS011;4072;42.668;23.396;2023-02-15T09:43:53;17.90;;;13.20;;
8058;SDS011;4072;42.668;23.396;2023-02-15T09:46:30;19.43;;;13.30;;
8058;SDS011;4072;42.668;23.396;2023-02-15T09:49:02;19.10;;;14.07;;
8058;SDS011;4072;42.668;23.396;2023-02-15T09:54:19;18.43;;;12.63;;
8058;SDS011;4072;42.668;23.396;2023-02-15T09:56:51;17.30;;;12.43;;
8058;SDS011;4072;42.668;23.396;2023-02-15T09:59:23;21.93;;;14.03;;
8058;SDS011;4072;42.668;23.396;2023-02-15T10:02:01;24.07;;;14.27;;
8058;SDS011;4072;42.668;23.396;2023-02-15T10:04:38;17.90;;;12.87;;
8058;SDS011;4072;42.668;23.396;2023-02-15T10:07:11;17.97;;;12.30;;
8058;SDS011;4072;42.668;23.396;2023-02-15T10:09:49;17.13;;;11.20;;
8058;SDS011;4072;42.668;23.396;2023-02-15T10:12:24;20.43;;;13.83;;
8058;SDS011;4072;42.668;23.396;2023-02-15T10:15:07;16.93;;;12.73;;
8058;SDS011;4072;42.668;23.396;2023-02-15T10:17:44;25.70;;;15.73;;
8058;SDS011;4072;42.668;23.396;2023-02-15T10:20:19;24.07;;;16.07;;
8058;SDS011;4072;42.668;23.396;2023-02-15T10:22:55;24.27;;;15.70;;
8058;SDS011;4072;42.668;23.396;2023-02-15T10:25:30;19.60;;;14.90;;
8058;SDS011;4072;42.668;23.396;2023-02-15T10:28:02;20.67;;;14.57;;
8058;SDS011;4072;42.668;23.396;2023-02-15T10:30:36;24.57;;;15.03;;
8058;SDS011;4072;42.668;23.396;2023-02-15T10:33:09;20.10;;;13.90;;
8058;SDS011;4072;42.668;23.396;2023-02-15T10:35:40;20.37;;;15.20;;
8058;SDS011;4072;42.668;23.396;2023-02-15T10:38:15;21.30;;;14.37;;
8058;SDS011;4072;42.668;23.396;2023-02-15T10:40:51;18.27;;;13.50;;
8058;SDS011;4072;42.668;23.396;2023-02-15T10:43:26;16.83;;;11.43;;
8058;SDS011;4072;42.668;23.396;2023-02-15T10:45:58;14.03;;;10.13;;
8058;SDS011;4072;42.668;23.396;2023-02-15T10:51:14;23.80;;;15.70;;
8058;SDS011;4072;42.668;23.396;2023-02-15T10:53:57;25.83;;;17.23;;
8058;SDS011;4072;42.668;23.396;2023-02-15T10:56:29;24.23;;;15.27;;
8058;SDS011;4072;42.668;23.396;2023-02-15T10:59:04;20.43;;;15.37;;
8058;SDS011;4072;42.668;23.396;2023-02-15T11:01:40;20.07;;;15.03;;
8058;SDS011;4072;42.668;23.396;2023-02-15T11:04:23;17.87;;;14.17;;
8058;SDS011;4072;42.668;23.396;2023-02-15T11:06:57;20.40;;;15.83;;
8058;SDS011;4072;42.668;23.396;2023-02-15T11:09:29;20.30;;;14.73;;
8058;SDS011;4072;42.668;23.396;2023-02-15T11:12:00;18.37;;;14.27;;
8058;SDS011;4072;42.668;23.396;2023-02-15T11:14:31;18.20;;;14.60;;
8058;SDS011;4072;42.668;23.396;2023-02-15T11:17:02;17.03;;;12.07;;
8058;SDS011;4072;42.668;23.396;2023-02-15T11:19:32;25.43;;;14.50;;
8058;SDS011;4072;42.668;23.396;2023-02-15T11:22:04;22.43;;;16.23;;
8058;SDS011;4072;42.668;23.396;2023-02-15T11:24:35;26.50;;;16.70;;
8058;SDS011;4072;42.668;23.396;2023-02-15T11:27:15;31.90;;;18.80;;
8058;SDS011;4072;42.668;23.396;2023-02-15T11:29:50;24.23;;;15.97;;
8058;SDS011;4072;42.668;23.396;2023-02-15T11:32:20;18.53;;;14.60;;
8058;SDS011;4072;42.668;23.396;2023-02-15T11:34:49;23.30;;;15.13;;
8058;SDS011;4072;42.668;23.396;2023-02-15T11:37:23;20.63;;;15.50;;
8058;SDS011;4072;42.668;23.396;2023-02-15T11:39:58;19.50;;;14.43;;
8058;SDS011;4072;42.668;23.396;2023-02-15T11:42:27;20.37;;;14.60;;
8058;SDS011;4072;42.668;23.396;2023-02-15T11:44:58;23.83;;;16.77;;
8058;SDS011;4072;42.668;23.396;2023-02-15T11:47:29;21.33;;;15.00;;
8058;SDS011;4072;42.668;23.396;2023-02-15T11:49:59;22.30;;;16.30;;
8058;SDS011;4072;42.668;23.396;2023-02-15T11:52:28;15.70;;;12.30;;
8058;SDS011;4072;42.668;23.396;2023-02-15T11:54:56;18.07;;;12.40;;
8058;SDS011;4072;42.668;23.396;2023-02-15T11:57:26;20.50;;;15.43;;
8058;SDS011;4072;42.668;23.396;2023-02-15T11:59:56;20.60;;;15.00;;
8058;SDS011;4072;42.668;23.396;2023-02-15T12:02:25;19.37;;;14.97;;
8058;SDS011;4072;42.668;23.396;2023-02-15T12:04:56;19.43;;;14.07;;
8058;SDS011;4072;42.668;23.396;2023-02-15T12:07:26;22.73;;;16.17;;
8058;SDS011;4072;42.668;23.396;2023-02-15T12:09:58;19.80;;;14.73;;
8058;SDS011;4072;42.668;23.396;2023-02-15T12:12:28;21.57;;;15.43;;
8058;SDS011;4072;42.668;23.396;2023-02-15T12:14:57;20.30;;;13.60;;
8058;SDS011;4072;42.668;23.396;2023-02-15T12:17:26;18.60;;;15.53;;
8058;SDS011;4072;42.668;23.396;2023-02-15T12:19:55;21.67;;;16.23;;
8058;SDS011;4072;42.668;23.396;2023-02-15T12:22:24;23.00;;;15.33;;
8058;SDS011;4072;42.668;23.396;2023-02-15T12:24:54;18.83;;;14.67;;
8058;SDS011;4072;42.668;23.396;2023-02-15T12:27:25;20.97;;;15.90;;
8058;SDS011;4072;42.668;23.396;2023-02-15T12:29:56;21.50;;;15.50;;
8058;SDS011;4072;42.668;23.396;2023-02-15T12:32:25;22.77;;;16.87;;
8058;SDS011;4072;42.668;23.396;2023-02-15T12:34:54;23.17;;;15.63;;
8058;SDS011;4072;42.668;23.396;2023-02-15T12:37:27;24.53;;;17.53;;
8058;SDS011;4072;42.668;23.396;2023-02-15T12:39:58;22.90;;;15.67;;
8058;SDS011;4072;42.668;23.396;2023-02-15T12:42:30;22.23;;;15.03;;
8058;SDS011;4072;42.668;23.396;2023-02-15T12:45:19;24.33;;;17.10;;
8058;SDS011;4072;42.668;23.396;2023-02-15T12:48:07;20.93;;;16.37;;
8058;SDS011;4072;42.668;23.396;2023-02-15T12:50:35;18.30;;;15.17;;
8058;SDS011;4072;42.668;23.396;2023-02-15T12:53:07;18.63;;;14.53;;
8058;SDS011;4072;42.668;23.396;2023-02-15T12:55:35;21.43;;;15.67;;
8058;SDS011;4072;42.668;23.396;2023-02-15T12:58:15;22.10;;;15.90;;
8058;SDS011;4072;42.668;23.396;2023-02-15T13:00:44;21.80;;;16.67;;
8058;SDS011;4072;42.668;23.396;2023-02-15T13:03:15;23.33;;;18.27;;
8058;SDS011;4072;42.668;23.396;2023-02-15T13:05:44;26.60;;;18.57;;
8058;SDS011;4072;42.668;23.396;2023-02-15T13:08:14;26.10;;;17.83;;
8058;SDS011;4072;42.668;23.396;2023-02-15T13:10:54;20.17;;;15.10;;
8058;SDS011;4072;42.668;23.396;2023-02-15T13:13:24;25.73;;;15.60;;
8058;SDS011;4072;42.668;23.396;2023-02-15T13:15:53;25.07;;;17.03;;
8058;SDS011;4072;42.668;23.396;2023-02-15T13:18:29;22.13;;;16.47;;
8058;SDS011;4072;42.668;23.396;2023-02-15T13:20:59;23.93;;;17.40;;
8058;SDS011;4072;42.668;23.396;2023-02-15T13:23:29;19.80;;;14.43;;
8058;SDS011;4072;42.668;23.396;2023-02-15T13:26:03;20.27;;;14.07;;
8058;SDS011;4072;42.668;23.396;2023-02-15T13:28:36;18.33;;;13.37;;
8058;SDS011;4072;42.668;23.396;2023-02-15T13:31:08;22.23;;;16.07;;
8058;SDS011;4072;42.668;23.396;2023-02-15T13:33:39;21.03;;;15.47;;
8058;SDS011;4072;42.668;23.396;2023-02-15T13:36:13;18.50;;;15.03;;
8058;SDS011;4072;42.668;23.396;2023-02-15T13:38:49;21.57;;;16.20;;
8058;SDS011;4072;42.668;23.396;2023-02-15T13:41:20;20.73;;;15.30;;
8058;SDS011;4072;42.668;23.396;2023-02-15T13:43:52;22.10;;;16.40;;
8058;SDS011;4072;42.668;23.396;2023-02-15T13:46:28;22.30;;;14.87;;
8058;SDS011;4072;42.668;23.396;2023-02-15T13:49:06;19.20;;;14.47;;
8058;SDS011;4072;42.668;23.396;2023-02-15T13:51:37;21.17;;;15.87;;
8058;SDS011;4072;42.668;23.396;2023-02-15T13:56:59;23.07;;;15.80;;
8058;SDS011;4072;42.668;23.396;2023-02-15T13:59:40;21.90;;;14.77;;
8058;SDS011;4072;42.668;23.396;2023-02-15T14:05:01;22.17;;;15.17;;
8058;SDS011;4072;42.668;23.396;2023-02-15T14:07:41;19.90;;;15.77;;
8058;SDS011;4072;42.668;23.396;2023-02-15T14:10:21;15.83;;;11.47;;
8058;SDS011;4072;42.668;23.396;2023-02-15T14:12:56;22.63;;;16.77;;
8058;SDS011;4072;42.668;23.396;2023-02-15T14:15:33;20.80;;;12.60;;
8058;SDS011;4072;42.668;23.396;2023-02-15T14:18:07;21.60;;;15.57;;
8058;SDS011;4072;42.668;23.396;2023-02-15T14:20:41;20.17;;;15.23;;
8058;SDS011;4072;42.668;23.396;2023-02-15T14:23:16;25.40;;;16.77;;
8058;SDS011;4072;42.668;23.396;2023-02-15T14:25:47;22.47;;;15.20;;
8058;SDS011;4072;42.668;23.396;2023-02-15T14:28:19;21.13;;;14.93;;
8058;SDS011;4072;42.668;23.396;2023-02-15T14:30:51;22.43;;;15.43;;
8058;SDS011;4072;42.668;23.396;2023-02-15T14:33:25;23.73;;;16.47;;
8058;SDS011;4072;42.668;23.396;2023-02-15T14:36:00;21.47;;;16.53;;
8058;SDS011;4072;42.668;23.396;2023-02-15T14:38:36;22.33;;;17.27;;
8058;SDS011;4072;42.668;23.396;2023-02-15T14:41:07;17.97;;;14.70;;
8058;SDS011;4072;42.668;23.396;2023-02-15T14:43:47;26.17;;;17.50;;
8058;SDS011;4072;42.668;23.396;2023-02-15T14:46:20;24.57;;;17.83;;
8058;SDS011;4072;42.668;23.396;2023-02-15T14:48:52;24.17;;;16.93;;
8058;SDS011;4072;42.668;23.396;2023-02-15T14:54:09;25.83;;;19.27;;
8058;SDS011;4072;42.668;23.396;2023-02-15T14:56:37;25.67;;;19.83;;
8058;SDS011;4072;42.668;23.396;2023-02-15T15:01:57;30.23;;;20.10;;
8058;SDS011;4072;42.668;23.396;2023-02-15T15:04:27;28.93;;;18.70;;
8058;SDS011;4072;42.668;23.396;2023-02-15T15:07:03;24.37;;;17.13;;
8058;SDS011;4072;42.668;23.396;2023-02-15T15:09:33;22.40;;;16.87;;
8058;SDS011;4072;42.668;23.396;2023-02-15T15:14:48;23.77;;;17.63;;
8058;SDS011;4072;42.668;23.396;2023-02-15T15:20:00;20.83;;;16.47;;
8058;SDS011;4072;42.668;23.396;2023-02-15T15:22:29;22.40;;;16.83;;
8058;SDS011;4072;42.668;23.396;2023-02-15T15:24:57;22.03;;;15.50;;
8058;SDS011;4072;42.668;23.396;2023-02-15T15:27:38;22.63;;;16.80;;
8058;SDS011;4072;42.668;23.396;2023-02-15T15:32:50;24.97;;;17.17;;